Terminal Aerodrome Forecast
Issued by NWS Sioux Falls, SD

Home | Current Version | Previous Version | Graphics & Text | Print | Product List | Glossary On
Versions: 1 2 3 4 5 6 7 8 9 10 11 12 13 14
999
FTUS43 KFSD 240522
TAFHON
TAF
KHON 240522Z 2406/2506 12005KT P6SM OVC070
     FM241000 04011KT P6SM -SHRA SCT035 OVC050
     FM241600 03015G23KT 6SM -SHRA BKN030 OVC050
     FM242200 01011KT P6SM VCSH OVC040
     FM250200 35008KT P6SM SCT080=

USA.gov is the U.S. government's official web portal to all federal, state and local government web resources and services.